Weather at El Milagro Carabobo Airport

Public forecast

Using degrees Celsius for public forecast. Weather courtesy of forecast.io.

Closest aviation weather report (METAR) to El Milagro Carabobo Airport

Report is more than 6 hours old.

Closest report is Sub Teniente Nestor Arias Airport, 23.7 nm (43.9 km) WNW. Retrieved 2017/08/10 11:00 UTC (4 years ago):

SVSP 101100Z 101100VCFG SCT012 SCT200 25/25 A2990

Closest aviation forecast (TAF) to El Milagro Carabobo Airport

Forecast is more than 12 hours old.

Closest forecast is Arturo Michelena International Airport, 26.4 nm (48.9 km) E. Retrieved 2021/07/31 12:18 UTC (13 hours ago):

TAF TAF SVVA 311000Z 0112/0212 14002KT 9000 -DZ FEW013CB BKN016 TX30/0118Z TN21/0218 TEMPO 0116/0120 05003KT 9999 SCT016 BKN100 TEMPO 0123/0203 11003KT BKN016